Time;durP1;ratioP1;P1;durP2;ratioP2;P2;SDS_P1;SDS_P2;PMS_P1;PMS_P2;Temp;Humidity;BMP_temperature;BMP_pressure;BME280_temperature;BME280_humidity;BME280_pressure;Samples;Min_cycle;Max_cycle;Signal;HPM_P1;HPM_P2
2023/07/30 00:02:23;;;;;;;4.95;2.60;;;17.60;99.90;;;;;;5059070;28;20036;-83
2023/07/30 00:04:49;;;;;;;5.70;2.72;;;17.60;99.90;;;;;;5026249;28;20025;-82
2023/07/30 00:07:14;;;;;;;6.18;2.90;;;17.70;99.90;;;;;;5077082;28;20021;-82
2023/07/30 00:09:40;;;;;;;4.55;2.60;;;17.60;99.90;;;;;;5058992;28;20376;-82
2023/07/30 00:12:07;;;;;;;6.68;2.72;;;17.70;99.90;;;;;;5059139;28;20036;-82
2023/07/30 00:14:34;;;;;;;4.82;2.80;;;17.60;99.90;;;;;;5058541;28;20162;-83
2023/07/30 00:17:00;;;;;;;5.18;2.72;;;17.60;99.90;;;;;;5058973;28;20496;-82
2023/07/30 00:19:25;;;;;;;5.00;2.90;;;17.60;99.90;;;;;;5042085;28;20059;-82
2023/07/30 00:21:51;;;;;;;4.47;2.47;;;17.70;99.90;;;;;;5058253;28;20091;-82
2023/07/30 00:24:17;;;;;;;5.78;2.40;;;17.70;99.90;;;;;;5058921;28;20059;-82
2023/07/30 00:26:42;;;;;;;5.60;2.47;;;17.60;99.90;;;;;;5042222;28;20024;-82
2023/07/30 00:29:08;;;;;;;4.35;2.50;;;17.60;99.90;;;;;;5058824;28;20051;-80
2023/07/30 00:31:34;;;;;;;7.68;2.95;;;17.60;99.90;;;;;;5041729;28;20032;-81
2023/07/30 00:33:59;;;;;;;4.18;2.33;;;17.60;99.90;;;;;;5058643;28;20029;-81
2023/07/30 00:36:25;;;;;;;4.95;2.42;;;17.60;99.90;;;;;;5075842;28;20029;-81
2023/07/30 00:38:54;;;;;;;3.45;2.03;;;17.60;99.90;;;;;;5025445;28;20033;-81
2023/07/30 00:41:19;;;;;;;4.93;2.70;;;17.50;99.90;;;;;;5076356;28;20448;-81
2023/07/30 00:43:45;;;;;;;5.13;2.55;;;17.50;99.90;;;;;;5025214;28;20064;-81
2023/07/30 00:46:12;;;;;;;3.92;2.30;;;17.50;99.90;;;;;;5041933;28;20056;-81
2023/07/30 00:48:37;;;;;;;7.68;3.10;;;17.50;99.90;;;;;;5076215;28;20122;-81
2023/07/30 00:51:04;;;;;;;3.95;2.47;;;17.50;99.90;;;;;;5041811;28;20566;-81
2023/07/30 00:53:30;;;;;;;6.80;2.55;;;17.50;99.90;;;;;;5025157;28;20119;-81
2023/07/30 00:55:56;;;;;;;4.57;2.50;;;17.40;99.90;;;;;;5058233;28;20104;-81
2023/07/30 00:58:23;;;;;;;5.60;2.60;;;17.40;99.90;;;;;;5075980;28;20451;-81
2023/07/30 01:00:51;;;;;;;4.72;2.80;;;17.40;99.90;;;;;;5057936;28;20396;-81
2023/07/30 01:03:17;;;;;;;5.97;2.88;;;17.40;99.90;;;;;;5058260;28;20116;-81
2023/07/30 01:05:44;;;;;;;5.70;2.55;;;17.40;99.90;;;;;;5076636;28;20403;-81
2023/07/30 01:08:10;;;;;;;5.20;2.85;;;17.40;99.90;;;;;;5077405;28;20032;-81
2023/07/30 01:10:37;;;;;;;6.32;3.25;;;17.40;99.90;;;;;;5079396;28;20039;-81
2023/07/30 01:13:04;;;;;;;4.47;2.40;;;17.40;99.90;;;;;;5052799;28;20024;-81
2023/07/30 01:15:31;;;;;;;6.30;2.72;;;17.40;99.90;;;;;;5100121;28;20013;-81
2023/07/30 01:17:58;;;;;;;5.97;3.03;;;17.30;99.90;;;;;;5082986;28;20013;-80
2023/07/30 01:20:23;;;;;;;4.28;2.83;;;17.30;99.90;;;;;;5066349;28;20025;-81
2023/07/30 01:22:49;;;;;;;5.07;2.63;;;17.30;99.90;;;;;;5064710;28;20044;-81
2023/07/30 01:25:15;;;;;;;5.97;2.88;;;17.30;99.90;;;;;;5059530;28;20368;-82
2023/07/30 01:27:48;;;;;;;7.32;3.20;;;17.30;99.90;;;;;;5057669;28;20025;-82
2023/07/30 01:30:27;;;;;;;4.72;2.83;;;17.40;99.90;;;;;;5075448;28;20104;-82
2023/07/30 01:32:54;;;;;;;6.88;2.80;;;17.30;99.90;;;;;;5074985;28;20029;-82
2023/07/30 01:35:27;;;;;;;5.75;2.67;;;17.40;99.90;;;;;;5075372;28;20031;-82
2023/07/30 01:37:54;;;;;;;6.55;3.10;;;17.30;99.90;;;;;;5040943;28;20029;-82
2023/07/30 01:40:20;;;;;;;4.65;2.65;;;17.30;99.90;;;;;;5057787;28;20518;-82
2023/07/30 01:42:46;;;;;;;6.18;3.28;;;17.30;99.90;;;;;;5056958;28;20056;-82
2023/07/30 01:45:12;;;;;;;6.78;3.00;;;17.30;99.90;;;;;;5023788;28;20064;-82
2023/07/30 01:47:37;;;;;;;6.72;2.92;;;17.30;99.90;;;;;;5038510;28;20029;-82
2023/07/30 01:50:03;;;;;;;6.13;3.00;;;17.30;99.90;;;;;;5057318;28;20051;-82
2023/07/30 01:52:29;;;;;;;7.30;3.08;;;17.30;99.90;;;;;;5056614;28;20024;-82
2023/07/30 01:54:56;;;;;;;6.60;3.00;;;17.20;99.90;;;;;;5056985;28;20380;-82
2023/07/30 01:57:21;;;;;;;5.43;2.95;;;17.20;99.90;;;;;;5057216;28;20448;-82
2023/07/30 01:59:47;;;;;;;6.63;3.13;;;17.20;99.90;;;;;;5057031;28;20021;-82
2023/07/30 02:02:13;;;;;;;5.93;2.53;;;17.20;99.90;;;;;;5056763;28;20464;-82
2023/07/30 02:04:39;;;;;;;4.60;2.50;;;17.20;99.90;;;;;;5039992;28;20082;-82
2023/07/30 02:07:04;;;;;;;6.85;2.83;;;17.20;99.90;;;;;;5074963;28;20440;-82
2023/07/30 02:09:30;;;;;;;4.20;2.38;;;17.10;99.90;;;;;;5056537;28;20025;-82
2023/07/30 02:11:55;;;;;;;7.25;2.90;;;17.10;99.90;;;;;;5039983;28;20469;-82
2023/07/30 02:14:21;;;;;;;7.20;3.60;;;17.20;99.90;;;;;;5040247;28;20025;-82
2023/07/30 02:16:47;;;;;;;6.43;2.92;;;17.20;99.90;;;;;;5056353;28;20020;-82
2023/07/30 02:19:12;;;;;;;6.50;3.03;;;17.10;99.90;;;;;;5040011;28;20024;-82
2023/07/30 02:21:42;;;;;;;5.88;2.97;;;17.10;99.90;;;;;;5056099;28;20083;-83
2023/07/30 02:24:11;;;;;;;6.68;2.83;;;17.10;99.90;;;;;;5056932;28;20127;-82
2023/07/30 02:26:37;;;;;;;5.30;2.92;;;17.10;99.90;;;;;;5056352;28;20027;-82
2023/07/30 02:29:03;;;;;;;5.07;2.92;;;17.10;99.90;;;;;;5040100;28;20027;-81
2023/07/30 02:31:28;;;;;;;4.38;2.55;;;17.10;99.90;;;;;;5056500;28;20086;-81
2023/07/30 02:33:54;;;;;;;7.20;3.20;;;17.00;99.90;;;;;;5056404;28;20515;-82
2023/07/30 02:36:19;;;;;;;5.55;2.80;;;17.10;99.90;;;;;;5040141;28;20472;-82
2023/07/30 02:38:45;;;;;;;6.30;2.67;;;17.10;99.90;;;;;;5056004;28;20093;-82
2023/07/30 02:41:11;;;;;;;6.13;2.83;;;17.10;99.90;;;;;;5039765;28;20112;-82
2023/07/30 02:43:36;;;;;;;6.38;2.97;;;17.10;99.90;;;;;;5074139;28;20158;-82
2023/07/30 02:46:02;;;;;;;4.50;2.45;;;17.10;99.90;;;;;;5056389;28;20037;-81
2023/07/30 02:48:27;;;;;;;8.02;3.03;;;17.10;99.90;;;;;;5039904;28;20410;-82
2023/07/30 02:50:53;;;;;;;6.00;3.30;;;17.10;99.90;;;;;;5039383;28;20107;-81
2023/07/30 02:53:19;;;;;;;9.02;2.90;;;17.20;99.90;;;;;;5039623;28;20028;-82
2023/07/30 02:55:44;;;;;;;5.68;3.20;;;17.20;99.90;;;;;;5023542;28;20471;-81
2023/07/30 02:58:10;;;;;;;8.18;3.40;;;17.20;99.90;;;;;;5040480;28;20020;-82
2023/07/30 03:00:36;;;;;;;5.47;3.42;;;17.20;99.90;;;;;;5062192;28;20029;-83
2023/07/30 03:03:03;;;;;;;8.55;3.47;;;17.30;99.90;;;;;;5047849;28;20040;-82
2023/07/30 03:05:28;;;;;;;9.93;3.38;;;17.30;99.90;;;;;;5080822;28;20024;-83
2023/07/30 03:07:54;;;;;;;6.47;3.42;;;17.30;99.90;;;;;;5079555;28;20024;-82
2023/07/30 03:10:20;;;;;;;6.55;3.20;;;17.30;99.90;;;;;;5074374;28;20069;-80
2023/07/30 03:12:46;;;;;;;9.68;3.90;;;17.30;99.90;;;;;;5068037;28;20123;-82
2023/07/30 03:15:11;;;;;;;7.68;4.25;;;17.30;99.90;;;;;;5074914;28;20107;-82
2023/07/30 03:17:37;;;;;;;7.40;3.42;;;17.30;99.90;;;;;;5023493;28;20186;-83
2023/07/30 03:20:04;;;;;;;8.55;3.90;;;17.30;99.90;;;;;;5039393;28;20025;-82
2023/07/30 03:22:29;;;;;;;9.60;4.18;;;17.30;99.90;;;;;;5022927;28;20110;-82
2023/07/30 03:24:55;;;;;;;12.30;4.80;;;17.30;99.90;;;;;;5055741;28;20020;-81
2023/07/30 03:27:21;;;;;;;11.93;4.30;;;17.30;99.90;;;;;;5073351;28;20036;-81
2023/07/30 03:29:46;;;;;;;8.55;4.90;;;17.30;99.90;;;;;;5039227;28;20027;-82
2023/07/30 03:32:12;;;;;;;8.68;4.03;;;17.30;99.90;;;;;;5055539;28;20024;-82
2023/07/30 03:34:38;;;;;;;7.78;4.25;;;17.30;99.90;;;;;;5039122;28;20016;-81
2023/07/30 03:37:04;;;;;;;9.02;4.05;;;17.30;99.90;;;;;;5055751;28;20036;-81
2023/07/30 03:39:29;;;;;;;10.23;4.55;;;17.30;99.90;;;;;;5022605;28;20013;-81
2023/07/30 03:41:55;;;;;;;11.77;5.70;;;17.30;99.90;;;;;;5022456;28;20092;-81
2023/07/30 03:44:21;;;;;;;11.13;4.70;;;17.30;99.90;;;;;;5055683;28;20487;-81
2023/07/30 03:46:46;;;;;;;10.02;4.20;;;17.30;99.90;;;;;;5039264;28;20398;-81
2023/07/30 03:49:12;;;;;;;9.25;4.40;;;17.30;99.90;;;;;;5038766;28;20025;-81
2023/07/30 03:51:43;;;;;;;12.05;5.60;;;17.30;99.90;;;;;;5038974;28;20024;-81
2023/07/30 03:54:09;;;;;;;10.57;4.45;;;17.30;99.90;;;;;;5055799;28;20127;-81
2023/07/30 03:56:35;;;;;;;9.82;5.15;;;17.30;99.90;;;;;;5022369;28;20066;-81
2023/07/30 03:59:00;;;;;;;8.63;4.72;;;17.30;99.90;;;;;;5022253;28;20016;-81
2023/07/30 04:01:26;;;;;;;8.52;5.03;;;17.30;99.90;;;;;;5073392;28;20069;-81
2023/07/30 04:03:52;;;;;;;10.88;5.18;;;17.30;99.90;;;;;;5073258;28;20113;-81
2023/07/30 04:06:17;;;;;;;9.18;4.45;;;17.20;99.90;;;;;;5055262;28;20364;-81
2023/07/30 04:08:43;;;;;;;10.93;4.47;;;17.30;99.90;;;;;;5038379;28;20090;-83
2023/07/30 04:11:09;;;;;;;10.38;4.53;;;17.30;99.90;;;;;;5038533;28;20013;-81
2023/07/30 04:13:34;;;;;;;7.47;4.22;;;17.30;99.90;;;;;;5038265;28;20059;-81
2023/07/30 04:16:00;;;;;;;8.73;4.85;;;17.30;99.90;;;;;;5038355;28;20016;-81
2023/07/30 04:18:25;;;;;;;10.70;5.20;;;17.40;99.90;;;;;;5038443;28;20074;-81
2023/07/30 04:20:55;;;;;;;11.35;4.90;;;17.40;99.90;;;;;;5038409;28;20031;-81
2023/07/30 04:23:20;;;;;;;13.18;5.72;;;17.40;99.90;;;;;;5051356;28;20366;-81
2023/07/30 04:25:49;;;;;;;10.25;4.60;;;17.40;99.90;;;;;;5035249;28;20036;-82
2023/07/30 04:28:15;;;;;;;13.38;6.07;;;17.40;99.90;;;;;;5051886;28;20408;-82
2023/07/30 04:30:40;;;;;;;11.23;5.10;;;17.40;99.90;;;;;;5035233;28;20028;-81
2023/07/30 04:33:06;;;;;;;14.20;5.25;;;17.40;99.90;;;;;;5052050;28;20029;-82
2023/07/30 04:35:32;;;;;;;12.63;5.18;;;17.40;99.90;;;;;;5051786;28;20040;-82
2023/07/30 04:37:57;;;;;;;10.02;5.47;;;17.50;99.90;;;;;;5018635;28;20028;-82
2023/07/30 04:40:23;;;;;;;12.70;4.97;;;17.50;99.90;;;;;;5022241;28;20024;-81
2023/07/30 04:42:48;;;;;;;11.95;5.38;;;17.50;99.90;;;;;;5056731;28;20407;-82
2023/07/30 04:45:14;;;;;;;10.65;5.18;;;17.50;99.90;;;;;;5057086;28;20021;-81
2023/07/30 04:47:40;;;;;;;12.35;5.35;;;17.60;99.90;;;;;;5038868;28;20101;-81
2023/07/30 04:50:06;;;;;;;15.02;5.45;;;17.60;99.90;;;;;;5063426;28;20009;-83
2023/07/30 04:52:31;;;;;;;12.95;5.28;;;17.60;99.90;;;;;;5078798;28;20025;-82
2023/07/30 04:54:57;;;;;;;10.40;5.80;;;17.60;99.90;;;;;;5078997;28;20025;-81
2023/07/30 04:57:22;;;;;;;10.52;5.10;;;17.60;99.90;;;;;;5071459;28;20025;-81
2023/07/30 04:59:48;;;;;;;10.00;5.35;;;17.70;99.90;;;;;;5028014;28;20072;-80
2023/07/30 05:02:14;;;;;;;10.23;5.60;;;17.70;99.90;;;;;;5045750;28;20445;-81
2023/07/30 05:04:40;;;;;;;12.52;5.20;;;17.70;99.90;;;;;;5022381;28;20116;-82
2023/07/30 05:07:05;;;;;;;15.82;5.93;;;17.70;99.90;;;;;;5055920;28;20025;-81
2023/07/30 05:09:31;;;;;;;13.35;5.50;;;17.70;99.90;;;;;;5055259;28;20078;-81
2023/07/30 05:11:57;;;;;;;14.20;6.20;;;17.80;99.90;;;;;;5054806;28;20071;-81
2023/07/30 05:14:22;;;;;;;12.25;5.53;;;17.80;99.90;;;;;;5021863;28;20040;-81
2023/07/30 05:16:48;;;;;;;10.43;5.78;;;17.80;99.90;;;;;;5038363;28;20029;-81
2023/07/30 05:19:13;;;;;;;13.35;6.03;;;17.90;99.90;;;;;;5037904;28;20377;-81
2023/07/30 05:21:39;;;;;;;14.13;6.30;;;17.90;99.90;;;;;;5057795;28;20045;-81
2023/07/30 05:24:05;;;;;;;12.43;5.60;;;17.90;99.90;;;;;;5057629;28;20041;-82
2023/07/30 05:26:30;;;;;;;13.40;5.95;;;17.90;99.90;;;;;;5024878;28;20029;-82
2023/07/30 05:28:56;;;;;;;13.68;6.15;;;17.90;99.90;;;;;;5041314;28;20027;-82
2023/07/30 05:31:22;;;;;;;12.55;5.90;;;17.90;99.90;;;;;;5024554;28;20039;-82
2023/07/30 05:33:47;;;;;;;14.07;5.82;;;18.00;99.90;;;;;;5041280;28;20029;-82
2023/07/30 05:36:13;;;;;;;13.10;6.22;;;18.00;99.90;;;;;;5041356;28;20139;-82
2023/07/30 05:38:38;;;;;;;11.80;6.20;;;18.00;99.90;;;;;;5057376;28;20031;-82
2023/07/30 05:41:04;;;;;;;14.93;6.32;;;18.10;99.90;;;;;;5040915;28;20357;-82
2023/07/30 05:43:30;;;;;;;13.82;6.78;;;18.10;99.90;;;;;;5040851;28;20392;-82
2023/07/30 05:45:55;;;;;;;12.98;6.25;;;18.10;99.90;;;;;;5040863;28;20025;-83
2023/07/30 05:48:21;;;;;;;13.30;7.03;;;18.10;99.90;;;;;;5040842;28;20129;-81
2023/07/30 05:50:46;;;;;;;14.25;7.53;;;18.10;99.90;;;;;;5040523;28;20482;-81
2023/07/30 05:53:12;;;;;;;12.95;6.32;;;18.10;99.90;;;;;;5040521;28;20028;-81
2023/07/30 05:55:38;;;;;;;14.98;7.53;;;18.10;99.90;;;;;;5057591;28;20104;-82
2023/07/30 05:58:03;;;;;;;13.02;6.15;;;18.20;99.90;;;;;;5057263;28;20112;-83
2023/07/30 06:00:29;;;;;;;15.63;7.30;;;18.10;99.90;;;;;;5024019;28;20063;-82
2023/07/30 06:02:55;;;;;;;16.38;6.32;;;18.10;99.90;;;;;;5057247;28;20064;-82
2023/07/30 06:05:21;;;;;;;11.82;6.28;;;18.20;99.90;;;;;;5040270;28;20480;-82
2023/07/30 06:07:46;;;;;;;14.98;7.35;;;18.20;99.90;;;;;;5056796;28;20419;-82
2023/07/30 06:10:12;;;;;;;14.48;7.32;;;18.20;99.90;;;;;;5040153;28;20488;-82
2023/07/30 06:12:38;;;;;;;14.13;6.78;;;18.30;99.90;;;;;;5040312;28;20055;-82
2023/07/30 06:15:06;;;;;;;15.48;7.18;;;18.30;99.90;;;;;;5040101;28;20025;-82
2023/07/30 06:17:32;;;;;;;11.90;6.38;;;18.30;99.90;;;;;;5074720;28;20024;-82
2023/07/30 06:19:57;;;;;;;12.20;6.82;;;18.40;99.90;;;;;;5040305;28;20028;-82
2023/07/30 06:22:23;;;;;;;12.55;6.20;;;18.40;99.90;;;;;;5073970;28;20082;-81
2023/07/30 06:24:48;;;;;;;13.80;7.68;;;18.40;99.90;;;;;;5040214;28;20070;-81
2023/07/30 06:27:14;;;;;;;13.70;6.80;;;18.40;99.90;;;;;;5039953;28;20024;-82
2023/07/30 06:29:40;;;;;;;13.23;7.20;;;18.50;99.90;;;;;;5040174;28;20063;-82
2023/07/30 06:32:06;;;;;;;14.23;6.75;;;18.50;99.90;;;;;;5074963;28;20505;-82
2023/07/30 06:34:32;;;;;;;13.73;6.68;;;18.60;99.90;;;;;;5023998;28;20401;-82
2023/07/30 06:36:57;;;;;;;13.18;7.32;;;18.60;99.90;;;;;;5040560;28;20023;-82
2023/07/30 06:39:23;;;;;;;15.73;6.50;;;18.60;99.90;;;;;;5076915;28;20028;-81
2023/07/30 06:41:49;;;;;;;19.08;7.00;;;18.60;99.90;;;;;;5098693;28;20016;-81
2023/07/30 06:44:14;;;;;;;15.68;7.40;;;18.60;99.90;;;;;;5064494;28;20132;-83
2023/07/30 06:46:41;;;;;;;12.23;6.50;;;18.60;99.90;;;;;;5063416;28;20036;-83
2023/07/30 06:49:07;;;;;;;15.10;6.90;;;18.70;99.90;;;;;;5096814;28;20008;-82
2023/07/30 06:51:32;;;;;;;14.10;6.30;;;18.70;99.90;;;;;;5069595;28;20043;-82
2023/07/30 06:53:58;;;;;;;12.93;6.97;;;18.70;99.90;;;;;;5057223;28;20395;-81
2023/07/30 06:56:23;;;;;;;15.07;6.22;;;18.80;99.90;;;;;;5056887;28;20056;-81
2023/07/30 06:58:49;;;;;;;13.13;7.25;;;18.80;99.90;;;;;;5056604;28;20357;-82
2023/07/30 07:01:15;;;;;;;15.90;7.03;;;18.90;99.90;;;;;;5038980;28;20537;-82
2023/07/30 07:03:40;;;;;;;12.80;7.05;;;18.90;99.90;;;;;;5056335;28;20478;-82
2023/07/30 07:06:06;;;;;;;14.30;6.57;;;18.90;99.90;;;;;;5039624;28;20455;-84
2023/07/30 07:08:32;;;;;;;16.52;7.82;;;18.90;99.90;;;;;;5039793;28;20507;-82
2023/07/30 07:10:57;;;;;;;15.25;7.72;;;18.90;99.90;;;;;;5022785;28;20059;-82
2023/07/30 07:13:23;;;;;;;13.48;6.75;;;18.90;99.90;;;;;;5055949;28;20067;-82
2023/07/30 07:15:49;;;;;;;19.17;7.78;;;18.90;99.90;;;;;;5055813;28;20032;-82
2023/07/30 07:18:14;;;;;;;16.85;8.20;;;19.00;99.90;;;;;;5039193;28;20028;-83
2023/07/30 07:20:40;;;;;;;19.20;8.02;;;19.10;99.90;;;;;;5056105;28;20024;-82
2023/07/30 07:23:06;;;;;;;15.30;7.78;;;19.10;99.90;;;;;;5019092;28;20080;-82
2023/07/30 07:25:31;;;;;;;15.50;7.10;;;19.10;99.90;;;;;;5053449;28;20060;-83
2023/07/30 07:27:57;;;;;;;13.00;6.70;;;19.20;99.90;;;;;;5053578;28;20028;-82
2023/07/30 07:30:23;;;;;;;14.00;6.80;;;19.30;99.90;;;;;;5052960;28;20029;-82
2023/07/30 07:32:51;;;;;;;13.63;6.68;;;19.30;99.90;;;;;;5035920;28;20029;-82
2023/07/30 07:35:18;;;;;;;12.90;6.90;;;19.50;99.90;;;;;;5036203;28;20083;-82
2023/07/30 07:37:44;;;;;;;13.32;6.53;;;19.50;99.90;;;;;;5035977;28;20046;-81
2023/07/30 07:40:10;;;;;;;13.77;6.82;;;19.50;99.90;;;;;;5052256;28;20412;-83
2023/07/30 07:42:37;;;;;;;15.57;6.45;;;19.50;99.90;;;;;;5035960;28;20029;-82
2023/07/30 07:45:03;;;;;;;13.15;5.55;;;19.60;99.90;;;;;;5052299;28;20033;-82
2023/07/30 07:47:29;;;;;;;11.93;5.53;;;19.60;99.90;;;;;;5052200;28;20067;-82
2023/07/30 07:49:55;;;;;;;11.55;5.55;;;19.60;99.90;;;;;;5035758;28;20469;-82
2023/07/30 07:52:20;;;;;;;9.65;5.57;;;19.70;99.90;;;;;;5053096;28;20021;-82
2023/07/30 07:54:46;;;;;;;10.10;5.00;;;19.70;99.90;;;;;;5035529;28;20052;-82
2023/07/30 07:57:12;;;;;;;12.50;5.70;;;19.70;99.90;;;;;;5052403;28;20260;-83
2023/07/30 07:59:37;;;;;;;12.40;5.07;;;19.70;99.90;;;;;;5035637;28;20047;-82
2023/07/30 08:02:03;;;;;;;10.10;4.55;;;19.70;99.90;;;;;;5035454;28;20488;-82
2023/07/30 08:04:29;;;;;;;9.48;4.70;;;19.80;99.90;;;;;;5018506;28;20396;-82
2023/07/30 08:06:54;;;;;;;10.13;4.38;;;19.80;99.90;;;;;;5052063;28;20033;-82
2023/07/30 08:09:20;;;;;;;10.50;4.70;;;19.80;99.90;;;;;;5053287;28;20041;-82
2023/07/30 08:11:46;;;;;;;10.80;4.13;;;19.80;99.90;;;;;;5051880;28;20029;-82
2023/07/30 08:14:11;;;;;;;9.95;4.93;;;19.80;99.90;;;;;;5055781;28;20060;-81
2023/07/30 08:16:37;;;;;;;10.27;4.45;;;19.90;99.90;;;;;;5057204;28;20033;-82
2023/07/30 08:19:03;;;;;;;10.35;4.55;;;19.80;99.90;;;;;;5055777;28;20049;-82
2023/07/30 08:21:28;;;;;;;12.43;4.63;;;19.80;99.90;;;;;;5023038;28;20043;-82
2023/07/30 08:23:54;;;;;;;9.60;4.25;;;19.90;99.90;;;;;;5022500;28;20055;-82
2023/07/30 08:26:19;;;;;;;9.48;4.30;;;19.90;99.90;;;;;;5056699;28;20059;-82
2023/07/30 08:28:45;;;;;;;10.35;4.35;;;19.90;99.90;;;;;;5041072;28;20445;-82
2023/07/30 08:31:11;;;;;;;14.05;5.30;;;20.00;99.90;;;;;;5040054;28;20488;-82
2023/07/30 08:33:36;;;;;;;11.35;4.32;;;20.00;99.80;;;;;;5039447;28;20468;-82
2023/07/30 08:36:02;;;;;;;11.25;4.72;;;20.00;99.80;;;;;;5056429;28;20029;-82
2023/07/30 08:38:29;;;;;;;15.00;5.50;;;20.10;99.80;;;;;;5060320;28;20039;-83
2023/07/30 08:40:55;;;;;;;11.90;5.00;;;20.10;99.70;;;;;;5080522;28;20084;-82
2023/07/30 08:43:20;;;;;;;13.65;5.05;;;20.10;99.70;;;;;;5078992;28;20037;-82
2023/07/30 08:45:46;;;;;;;13.88;4.68;;;20.10;99.60;;;;;;5063136;28;20104;-81
2023/07/30 08:48:12;;;;;;;16.38;5.22;;;20.20;99.60;;;;;;5055996;28;20574;-81
2023/07/30 08:50:39;;;;;;;10.50;3.95;;;20.10;99.50;;;;;;5055814;28;20120;-81
2023/07/30 08:53:07;;;;;;;10.35;3.83;;;20.20;99.60;;;;;;5056825;28;20032;-81
2023/07/30 08:55:34;;;;;;;9.60;4.50;;;20.20;99.50;;;;;;5055619;28;20492;-81
2023/07/30 08:58:03;;;;;;;11.10;3.95;;;20.30;99.60;;;;;;5039300;28;20024;-81
2023/07/30 09:00:34;;;;;;;11.63;4.27;;;20.30;99.50;;;;;;5022164;28;20112;-81
2023/07/30 09:03:02;;;;;;;12.88;4.43;;;20.40;99.30;;;;;;5055539;28;20291;-81
2023/07/30 09:05:29;;;;;;;7.45;3.38;;;20.30;99.10;;;;;;5055066;28;20089;-82
2023/07/30 09:07:55;;;;;;;11.07;4.05;;;20.30;99.00;;;;;;5038803;28;20048;-81
2023/07/30 09:10:22;;;;;;;8.70;3.65;;;20.30;98.90;;;;;;5055104;28;20095;-83
2023/07/30 09:12:54;;;;;;;9.00;3.30;;;20.30;98.80;;;;;;5055963;28;20530;-81
2023/07/30 09:15:32;;;;;;;7.07;3.25;;;20.30;98.80;;;;;;5054978;28;20025;-81
2023/07/30 09:17:59;;;;;;;10.05;3.60;;;20.30;98.90;;;;;;5056156;28;20055;-81
2023/07/30 09:20:25;;;;;;;9.75;3.55;;;20.30;98.80;;;;;;5055770;28;20083;-81
2023/07/30 09:22:51;;;;;;;8.40;3.83;;;20.40;98.80;;;;;;5055088;28;20053;-88
2023/07/30 09:25:24;;;;;;;11.40;3.40;;;20.40;98.80;;;;;;5054943;28;20079;-88
2023/07/30 09:27:51;;;;;;;10.82;3.45;;;20.40;98.80;;;;;;5056864;28;20025;-89
2023/07/30 09:30:23;;;;;;;12.00;3.72;;;20.40;98.70;;;;;;5038758;28;20563;-88
2023/07/30 09:32:53;;;;;;;10.98;3.33;;;20.50;98.70;;;;;;5055801;28;20028;-89
2023/07/30 09:35:19;;;;;;;11.57;3.88;;;20.50;98.60;;;;;;5056833;28;20021;-90
2023/07/30 09:37:45;;;;;;;10.00;3.03;;;20.50;98.30;;;;;;5056642;28;20108;-88
2023/07/30 09:40:13;;;;;;;10.18;3.53;;;20.50;98.20;;;;;;5055216;28;20131;-90
2023/07/30 09:42:41;;;;;;;8.05;3.33;;;20.50;98.00;;;;;;5055237;28;20040;-90
2023/07/30 09:45:16;;;;;;;10.80;3.10;;;20.50;98.00;;;;;;5055309;28;20469;-90
2023/07/30 09:47:46;;;;;;;9.13;2.95;;;20.50;98.00;;;;;;5054976;28;20025;-89
2023/07/30 09:50:13;;;;;;;9.35;2.63;;;20.60;98.10;;;;;;5054384;28;20043;-88
2023/07/30 09:52:39;;;;;;;6.78;2.40;;;20.60;98.10;;;;;;5056165;28;20132;-89
2023/07/30 09:55:07;;;;;;;8.57;2.80;;;20.60;98.10;;;;;;5055073;28;20029;-90
2023/07/30 09:57:33;;;;;;;8.60;2.78;;;20.70;98.20;;;;;;5055835;28;20025;-87
2023/07/30 10:00:02;;;;;;;8.52;3.00;;;20.80;98.20;;;;;;5054160;28;20017;-89
2023/07/30 10:02:31;;;;;;;9.93;3.20;;;20.90;98.10;;;;;;5054286;28;20032;-88
2023/07/30 10:05:00;;;;;;;7.75;2.50;;;20.90;98.10;;;;;;5054077;28;20017;-90
2023/07/30 10:07:28;;;;;;;8.93;2.50;;;21.00;98.00;;;;;;5054532;28;20017;-87
2023/07/30 10:10:00;;;;;;;6.15;2.17;;;21.00;97.90;;;;;;5054174;28;20025;-87
2023/07/30 10:12:30;;;;;;;5.32;2.10;;;21.10;97.80;;;;;;5054199;28;20147;-87
2023/07/30 10:14:56;;;;;;;8.57;2.60;;;21.20;97.50;;;;;;5054190;28;20461;-87
2023/07/30 10:17:22;;;;;;;7.80;2.42;;;21.10;97.40;;;;;;5055539;28;20100;-88
2023/07/30 10:19:49;;;;;;;9.13;2.47;;;21.10;97.20;;;;;;5054632;28;20035;-87
2023/07/30 10:22:17;;;;;;;7.70;2.80;;;21.10;97.20;;;;;;5054921;28;20077;-88
2023/07/30 10:25:12;;;;;;;9.02;2.50;;;21.10;96.60;;;;;;5056172;28;20041;-87
2023/07/30 10:27:43;;;;;;;8.20;2.60;;;21.00;96.20;;;;;;5066491;28;20057;-88
2023/07/30 10:30:17;;;;;;;7.63;2.22;;;20.90;96.20;;;;;;5077591;28;20049;-82
2023/07/30 10:32:55;;;;;;;4.95;2.22;;;20.90;96.40;;;;;;5078150;28;20025;-82
2023/07/30 10:35:43;;;;;;;4.70;1.80;;;20.90;96.50;;;;;;5077056;28;20021;-84
2023/07/30 10:38:28;;;;;;;7.88;2.30;;;20.90;96.50;;;;;;5068347;28;20357;-82
2023/07/30 10:41:12;;;;;;;5.85;1.98;;;21.00;96.30;;;;;;5053420;28;20031;-82
2023/07/30 10:43:48;;;;;;;4.97;2.00;;;20.90;95.90;;;;;;5053247;28;20032;-82
2023/07/30 10:46:17;;;;;;;3.28;1.52;;;20.90;95.90;;;;;;5053436;28;20139;-82
2023/07/30 10:48:45;;;;;;;5.88;1.65;;;20.90;95.90;;;;;;5053105;28;20027;-82
2023/07/30 10:51:16;;;;;;;6.88;2.13;;;20.80;95.80;;;;;;5036770;28;20461;-82
2023/07/30 10:53:46;;;;;;;4.43;1.45;;;20.80;95.60;;;;;;5053041;28;20032;-82
2023/07/30 10:56:12;;;;;;;5.15;1.75;;;20.80;95.60;;;;;;5036289;28;20124;-82
2023/07/30 10:58:38;;;;;;;5.47;1.30;;;20.80;95.70;;;;;;5052696;28;20048;-83
2023/07/30 11:01:06;;;;;;;5.75;1.30;;;20.80;95.70;;;;;;5052563;28;20017;-82
2023/07/30 11:03:32;;;;;;;4.63;1.60;;;20.80;95.80;;;;;;5052749;28;20029;-82
2023/07/30 11:05:59;;;;;;;3.90;1.48;;;20.90;96.00;;;;;;5035720;28;20075;-83
2023/07/30 11:08:39;;;;;;;4.18;1.30;;;20.90;96.20;;;;;;5036095;28;20477;-82
2023/07/30 11:11:07;;;;;;;5.28;1.52;;;21.00;96.30;;;;;;5052657;28;20021;-83
2023/07/30 11:13:37;;;;;;;4.45;1.48;;;21.10;96.40;;;;;;5036240;28;20365;-82
2023/07/30 11:16:08;;;;;;;3.72;1.60;;;21.10;96.40;;;;;;5052788;28;20029;-83
2023/07/30 11:18:34;;;;;;;;;;;21.20;96.40;;;;;;5053238;28;20115;-82
2023/07/30 11:21:04;;;;;;;4.72;1.70;;;21.10;96.20;;;;;;5035969;28;19947;-82
2023/07/30 11:23:30;;;;;;;3.17;1.25;;;21.10;96.10;;;;;;5052259;28;20048;-82
2023/07/30 11:25:55;;;;;;;5.32;1.88;;;21.10;96.50;;;;;;5019107;28;20025;-82
2023/07/30 11:28:34;;;;;;;5.75;1.70;;;21.20;96.30;;;;;;5052620;28;20064;-82
